createdAt,value
2019-05-07T00:00:34.428Z,15.93
2019-05-07T00:03:05.552Z,19.05
2019-05-07T00:05:35.880Z,15.75
2019-05-07T00:08:05.729Z,15.45
2019-05-07T00:10:35.254Z,14.15
2019-05-07T00:13:05.475Z,17.00
2019-05-07T00:15:35.302Z,18.87
2019-05-07T00:18:06.154Z,15.28
2019-05-07T00:20:35.686Z,8.68
2019-05-07T00:23:05.426Z,15.90
2019-05-07T00:25:35.150Z,11.80
2019-05-07T00:28:05.508Z,14.63
2019-05-07T00:30:35.388Z,16.57
2019-05-07T00:33:04.827Z,14.23
2019-05-07T00:35:42.891Z,17.15
2019-05-07T00:38:17.274Z,18.60
2019-05-07T00:40:52.039Z,19.27
2019-05-07T00:43:24.384Z,17.42
2019-05-07T00:45:57.098Z,16.50
2019-05-07T00:48:27.347Z,21.02
2019-05-07T00:50:59.021Z,20.40
2019-05-07T00:53:28.769Z,18.23
2019-05-07T00:55:58.509Z,17.87
2019-05-07T00:58:28.394Z,20.08
2019-05-07T01:00:58.141Z,21.68
2019-05-07T01:03:28.022Z,17.77
2019-05-07T01:05:57.947Z,24.47
2019-05-07T01:08:27.927Z,18.35
2019-05-07T01:10:57.361Z,21.27
2019-05-07T01:13:27.007Z,18.45
2019-05-07T01:15:57.311Z,21.00
2019-05-07T01:18:27.261Z,18.00
2019-05-07T01:20:57.418Z,22.27
2019-05-07T01:23:27.115Z,23.95
2019-05-07T01:25:56.857Z,23.05
2019-05-07T01:28:26.525Z,26.48
2019-05-07T01:30:56.277Z,19.23
2019-05-07T01:33:34.346Z,20.65
2019-05-07T01:36:15.385Z,22.42
2019-05-07T01:38:45.423Z,21.00
2019-05-07T01:41:14.977Z,20.17
2019-05-07T01:43:44.613Z,14.23
2019-05-07T01:46:13.970Z,18.35
2019-05-07T01:48:43.895Z,14.00
2019-05-07T01:51:13.564Z,16.00
2019-05-07T01:53:43.298Z,17.30
2019-05-07T01:56:12.881Z,17.87
2019-05-07T01:58:42.651Z,21.97
2019-05-07T02:01:13.207Z,19.73
2019-05-07T02:03:47.518Z,19.30
2019-05-07T02:09:28.159Z,13.93
2019-05-07T02:12:02.623Z,15.90
2019-05-07T02:14:33.130Z,14.03
2019-05-07T02:17:03.202Z,15.28
2019-05-07T02:19:33.170Z,14.98
2019-05-07T02:22:04.376Z,14.03
2019-05-07T02:24:34.634Z,17.65
2019-05-07T02:27:04.176Z,23.47
2019-05-07T02:29:33.803Z,20.43
2019-05-07T02:32:04.600Z,19.10
2019-05-07T02:34:35.266Z,19.57
2019-05-07T02:37:06.718Z,20.95
2019-05-07T02:39:44.685Z,19.12
2019-05-07T02:42:14.460Z,22.80
2019-05-07T02:45:04.161Z,17.77
2019-05-07T02:47:34.854Z,18.60
2019-05-07T02:50:12.937Z,20.08
2019-05-07T02:52:59.842Z,22.02
2019-05-07T02:55:33.907Z,21.48
2019-05-07T02:58:03.974Z,21.00
2019-05-07T03:00:34.334Z,22.87
2019-05-07T03:03:04.703Z,23.80
2019-05-07T03:05:35.309Z,21.87
2019-05-07T03:08:05.547Z,23.25
2019-05-07T03:10:35.036Z,21.05
2019-05-07T03:13:04.820Z,23.30
2019-05-07T03:15:35.324Z,25.65
2019-05-07T03:18:05.209Z,21.42
2019-05-07T03:20:42.991Z,25.97
2019-05-07T03:23:14.348Z,20.70
2019-05-07T03:25:54.024Z,25.77
2019-05-07T03:28:26.553Z,21.42
2019-05-07T03:31:09.734Z,18.87
2019-05-07T03:33:46.576Z,21.68
2019-05-07T03:36:16.583Z,20.47
2019-05-07T03:38:44.836Z,20.68
2019-05-07T03:41:14.471Z,17.85
2019-05-07T03:43:44.791Z,21.87
2019-05-07T03:46:18.798Z,26.17
2019-05-07T03:48:48.512Z,21.23
2019-05-07T03:51:18.769Z,19.62
2019-05-07T03:53:48.316Z,26.68
2019-05-07T03:56:19.479Z,21.45
2019-05-07T03:58:49.260Z,20.82
2019-05-07T04:01:18.699Z,21.30
2019-05-07T04:03:48.346Z,22.13
2019-05-07T04:06:19.157Z,22.37
2019-05-07T04:08:49.017Z,22.40
2019-05-07T04:11:18.917Z,27.62
2019-05-07T04:13:49.071Z,24.18
2019-05-07T04:16:19.800Z,21.87
2019-05-07T04:18:52.813Z,21.55
2019-05-07T04:21:23.161Z,21.10
2019-05-07T04:23:54.795Z,24.87
2019-05-07T04:26:33.891Z,23.25
2019-05-07T04:29:06.147Z,24.35
2019-05-07T04:31:55.805Z,25.80
2019-05-07T04:34:44.671Z,24.75
2019-05-07T04:37:15.410Z,24.10
2019-05-07T04:39:54.055Z,21.73
2019-05-07T04:42:24.746Z,21.00
2019-05-07T04:44:54.338Z,24.80
2019-05-07T04:47:41.221Z,21.55
2019-05-07T04:49:56.047Z,18.02
2019-05-07T04:52:36.725Z,24.05
2019-05-07T04:55:07.678Z,22.07
2019-05-07T04:57:37.346Z,22.02
2019-05-07T05:00:09.212Z,24.32
2019-05-07T05:02:53.155Z,24.20
2019-05-07T05:05:24.050Z,22.83
2019-05-07T05:07:53.880Z,22.40
2019-05-07T05:10:23.823Z,22.22
2019-05-07T05:12:53.929Z,21.40
2019-05-07T05:15:23.850Z,26.17
2019-05-07T05:17:54.136Z,19.05
2019-05-07T05:20:25.894Z,21.17
2019-05-07T05:23:03.480Z,21.93
2019-05-07T05:25:34.765Z,21.23
2019-05-07T05:28:04.750Z,23.57
2019-05-07T05:30:36.827Z,23.57
2019-05-07T05:33:06.532Z,23.95
2019-05-07T05:35:38.598Z,22.32
2019-05-07T05:38:12.729Z,24.25
2019-05-07T05:40:42.953Z,23.90
2019-05-07T05:43:31.774Z,25.65
2019-05-07T05:46:07.230Z,24.05
2019-05-07T05:48:38.553Z,26.07
2019-05-07T05:51:25.183Z,24.10
2019-05-07T05:54:02.809Z,25.45
2019-05-07T05:56:51.862Z,27.80
2019-05-07T05:59:32.502Z,29.15
2019-05-07T06:02:06.483Z,27.75
2019-05-07T06:04:49.006Z,23.20
2019-05-07T06:07:24.227Z,24.15
2019-05-07T06:10:02.552Z,22.40
2019-05-07T06:12:42.701Z,22.70
2019-05-07T06:15:30.171Z,27.60
2019-05-07T06:18:02.771Z,28.83
2019-05-07T06:20:53.551Z,28.65
2019-05-07T06:23:25.188Z,23.38
2019-05-07T06:25:55.150Z,23.55
2019-05-07T06:28:25.082Z,23.85
2019-05-07T06:30:54.609Z,23.15
2019-05-07T06:33:24.443Z,25.37
2019-05-07T06:35:53.997Z,24.10
2019-05-07T06:38:26.332Z,24.85
2019-05-07T06:41:02.546Z,26.77
2019-05-07T06:43:36.036Z,26.05
2019-05-07T06:46:14.457Z,28.55
2019-05-07T06:48:46.240Z,29.10
2019-05-07T06:51:17.557Z,25.12
2019-05-07T06:53:48.060Z,22.65
2019-05-07T06:56:18.111Z,24.47
2019-05-07T06:58:49.618Z,25.65
2019-05-07T07:01:22.789Z,24.55
2019-05-07T07:04:02.338Z,22.15
2019-05-07T07:06:48.859Z,21.50
2019-05-07T07:09:29.355Z,23.50
2019-05-07T07:12:01.995Z,22.70
2019-05-07T07:14:33.114Z,24.70
2019-05-07T07:17:03.347Z,22.07
2019-05-07T07:19:35.887Z,21.37
2019-05-07T07:22:05.094Z,19.90
2019-05-07T07:24:35.261Z,24.70
2019-05-07T07:27:05.095Z,20.95
2019-05-07T07:29:36.735Z,21.60
2019-05-07T07:32:08.422Z,20.52
2019-05-07T07:34:43.672Z,18.80
2019-05-07T07:37:17.901Z,18.95
2019-05-07T07:42:17.506Z,18.95
2019-05-07T07:44:48.693Z,25.12
2019-05-07T07:47:18.158Z,20.43
2019-05-07T07:49:47.977Z,19.55
2019-05-07T07:52:17.423Z,19.30
2019-05-07T07:54:47.490Z,18.00
2019-05-07T07:57:18.857Z,17.27
2019-05-07T07:59:50.152Z,18.40
2019-05-07T08:02:23.110Z,18.07
2019-05-07T08:04:52.931Z,19.85
2019-05-07T08:07:22.976Z,19.48
2019-05-07T08:09:52.917Z,15.28
2019-05-07T08:12:22.401Z,17.77
2019-05-07T08:14:52.108Z,17.55
2019-05-07T08:17:22.546Z,17.17
2019-05-07T08:19:52.205Z,14.03
2019-05-07T08:22:22.650Z,24.50
2019-05-07T08:24:52.448Z,16.50
2019-05-07T08:27:22.371Z,14.00
2019-05-07T08:29:52.576Z,12.85
2019-05-07T08:32:24.192Z,15.00
2019-05-07T08:35:14.065Z,17.65
2019-05-07T08:37:43.074Z,14.43
2019-05-07T08:40:13.296Z,14.98
2019-05-07T08:42:44.421Z,16.50
2019-05-07T08:45:32.984Z,14.90
2019-05-07T08:48:13.413Z,16.85
2019-05-07T08:50:43.149Z,18.37
2019-05-07T08:53:13.339Z,15.50
2019-05-07T08:55:43.012Z,16.10
2019-05-07T08:58:33.744Z,19.05
2019-05-07T09:01:03.636Z,13.72
2019-05-07T09:03:45.187Z,15.72
2019-05-07T09:06:15.057Z,12.28
2019-05-07T09:08:46.008Z,13.95
2019-05-07T09:11:16.437Z,13.08
2019-05-07T09:13:46.161Z,12.78
2019-05-07T09:16:16.066Z,11.22
2019-05-07T09:18:45.787Z,10.30
2019-05-07T09:21:15.418Z,12.88
2019-05-07T09:23:45.630Z,10.10
2019-05-07T09:26:18.143Z,10.08
2019-05-07T09:28:52.274Z,11.57
2019-05-07T09:31:23.539Z,15.00
2019-05-07T09:33:54.737Z,13.20
2019-05-07T09:36:26.015Z,13.03
2019-05-07T09:38:58.970Z,10.30
2019-05-07T09:41:27.101Z,13.95
2019-05-07T09:43:57.769Z,14.13
2019-05-07T09:46:28.393Z,8.63
2019-05-07T09:48:58.047Z,9.90
2019-05-07T09:51:27.796Z,10.38
2019-05-07T09:53:57.718Z,10.38
2019-05-07T09:56:28.142Z,10.98
2019-05-07T09:58:58.348Z,11.73
2019-05-07T10:01:28.280Z,10.58
2019-05-07T10:03:59.340Z,9.60
2019-05-07T10:06:29.059Z,11.48
2019-05-07T10:08:58.879Z,8.70
2019-05-07T10:11:32.752Z,11.80
2019-05-07T10:14:12.329Z,10.32
2019-05-07T10:17:02.608Z,10.15
2019-05-07T10:19:32.562Z,10.93
2019-05-07T10:22:02.453Z,9.63
2019-05-07T10:24:32.526Z,9.45
2019-05-07T10:27:02.512Z,16.70
2019-05-07T10:29:32.406Z,7.37
2019-05-07T10:32:02.406Z,10.58
2019-05-07T10:34:32.180Z,7.62
2019-05-07T10:37:02.710Z,9.23
2019-05-07T10:39:32.682Z,8.80
2019-05-07T10:42:02.550Z,10.05
2019-05-07T10:44:36.470Z,9.55
2019-05-07T10:47:24.392Z,13.25
2019-05-07T10:50:12.026Z,10.28
2019-05-07T10:52:42.481Z,10.32
2019-05-07T10:55:13.079Z,8.28
2019-05-07T10:57:42.673Z,10.38
2019-05-07T11:00:16.377Z,10.13
2019-05-07T11:02:47.599Z,11.68
2019-05-07T11:05:17.979Z,8.70
2019-05-07T11:07:49.198Z,9.63
2019-05-07T11:10:21.819Z,7.58
2019-05-07T11:12:51.868Z,10.53
2019-05-07T11:15:22.079Z,10.43
2019-05-07T11:18:02.841Z,9.23
2019-05-07T11:20:46.551Z,9.10
2019-05-07T11:23:05.362Z,6.97
2019-05-07T11:25:35.343Z,9.25
2019-05-07T11:28:05.749Z,8.58
2019-05-07T11:30:35.559Z,7.37
2019-05-07T11:33:05.225Z,8.85
2019-05-07T11:35:34.887Z,7.10
2019-05-07T11:38:17.757Z,9.78
2019-05-07T11:40:35.796Z,8.35
2019-05-07T11:43:13.213Z,8.13
2019-05-07T11:45:44.536Z,11.22
2019-05-07T11:48:14.527Z,10.10
2019-05-07T11:51:04.292Z,7.65
2019-05-07T11:53:41.790Z,7.47
2019-05-07T11:56:11.736Z,9.25
2019-05-07T11:58:43.347Z,11.05
2019-05-07T12:01:14.609Z,8.63
2019-05-07T12:03:44.402Z,11.28
2019-05-07T12:06:13.776Z,8.83
2019-05-07T12:08:51.301Z,9.50
2019-05-07T12:11:14.858Z,9.30
2019-05-07T12:13:44.792Z,7.87
2019-05-07T12:16:14.475Z,9.15
2019-05-07T12:18:44.204Z,7.05
2019-05-07T12:21:20.234Z,9.05
2019-05-07T12:23:44.858Z,7.15
2019-05-07T12:26:14.517Z,6.87
2019-05-07T12:28:44.470Z,10.48
2019-05-07T12:31:28.223Z,9.15
2019-05-07T12:34:02.423Z,7.65
2019-05-07T12:36:32.140Z,7.97
2019-05-07T12:39:02.270Z,9.18
2019-05-07T12:41:34.148Z,8.08
2019-05-07T12:44:07.170Z,7.92
2019-05-07T12:46:37.353Z,6.53
2019-05-07T12:49:06.918Z,6.60
2019-05-07T12:51:38.612Z,9.70
2019-05-07T12:54:14.376Z,7.62
2019-05-07T12:56:44.286Z,8.38
2019-05-07T12:59:14.036Z,5.80
2019-05-07T13:01:48.519Z,7.78
2019-05-07T13:04:29.062Z,6.53
2019-05-07T13:07:12.864Z,7.67
2019-05-07T13:09:42.846Z,7.20
2019-05-07T13:12:12.601Z,7.22
2019-05-07T13:14:42.252Z,5.42
2019-05-07T13:17:12.094Z,8.90
2019-05-07T13:19:42.518Z,7.55
2019-05-07T13:22:13.023Z,7.53
2019-05-07T13:24:42.794Z,8.48
2019-05-07T13:27:12.415Z,6.92
2019-05-07T13:29:44.848Z,9.85
2019-05-07T13:32:15.535Z,7.45
2019-05-07T13:34:47.308Z,10.18
2019-05-07T13:37:19.055Z,6.95
2019-05-07T13:39:56.619Z,6.20
2019-05-07T13:42:44.360Z,6.47
2019-05-07T13:45:18.495Z,7.87
2019-05-07T13:47:51.801Z,7.33
2019-05-07T13:50:22.120Z,8.20
2019-05-07T13:52:51.975Z,7.85
2019-05-07T13:55:21.933Z,6.03
2019-05-07T13:57:52.417Z,7.58
2019-05-07T14:00:24.499Z,6.30
2019-05-07T14:02:55.044Z,6.20
2019-05-07T14:05:24.799Z,6.40
2019-05-07T14:07:54.597Z,6.22
2019-05-07T14:10:24.199Z,6.95
2019-05-07T14:13:07.615Z,9.23
2019-05-07T14:15:26.933Z,8.90
2019-05-07T14:17:56.915Z,6.15
2019-05-07T14:20:26.386Z,7.03
2019-05-07T14:22:56.875Z,5.97
2019-05-07T14:25:26.707Z,7.33
2019-05-07T14:27:58.815Z,8.00
2019-05-07T14:30:28.061Z,7.78
2019-05-07T14:33:01.843Z,8.00
2019-05-07T14:35:36.091Z,10.70
2019-05-07T14:38:13.857Z,8.58
2019-05-07T14:40:44.109Z,7.10
2019-05-07T14:43:21.943Z,7.15
2019-05-07T14:45:52.273Z,6.30
2019-05-07T14:48:22.762Z,7.75
2019-05-07T14:50:53.087Z,8.90
2019-05-07T14:53:23.174Z,7.58
2019-05-07T14:55:52.781Z,8.40
2019-05-07T14:58:22.648Z,6.85
2019-05-07T15:00:52.476Z,8.68
2019-05-07T15:03:22.869Z,7.08
2019-05-07T15:05:53.510Z,6.22
2019-05-07T15:08:23.401Z,7.12
2019-05-07T15:10:53.123Z,7.95
2019-05-07T15:13:22.968Z,8.10
2019-05-07T15:15:54.382Z,5.58
2019-05-07T15:18:28.375Z,8.00
2019-05-07T15:20:58.168Z,7.17
2019-05-07T15:23:32.429Z,6.10
2019-05-07T15:26:04.727Z,9.95
2019-05-07T15:28:35.989Z,5.40
2019-05-07T15:31:12.090Z,9.65
2019-05-07T15:33:41.779Z,9.60
2019-05-07T15:36:12.042Z,6.97
2019-05-07T15:38:42.888Z,8.43
2019-05-07T15:41:12.712Z,9.43
2019-05-07T15:43:45.883Z,8.58
2019-05-07T15:46:13.457Z,7.25
2019-05-07T15:48:43.415Z,8.10
2019-05-07T15:51:13.147Z,7.83
2019-05-07T15:53:52.229Z,6.05
2019-05-07T15:56:22.431Z,7.20
2019-05-07T15:58:52.085Z,7.55
2019-05-07T16:01:22.323Z,9.23
2019-05-07T16:03:54.968Z,7.75
2019-05-07T16:06:24.871Z,6.62
2019-05-07T16:08:56.236Z,8.88
2019-05-07T16:11:27.359Z,12.45
2019-05-07T16:14:06.848Z,8.60
2019-05-07T16:16:38.248Z,9.13
2019-05-07T16:19:12.703Z,8.50
2019-05-07T16:21:42.625Z,10.82
2019-05-07T16:24:12.570Z,8.75
2019-05-07T16:26:42.422Z,8.70
2019-05-07T16:29:13.296Z,9.98
2019-05-07T16:31:44.264Z,8.08
2019-05-07T16:34:14.174Z,8.95
2019-05-07T16:36:43.936Z,12.58
2019-05-07T16:39:14.423Z,10.23
2019-05-07T16:41:43.862Z,8.70
2019-05-07T16:44:14.222Z,11.10
2019-05-07T16:46:44.175Z,9.63
2019-05-07T16:49:14.282Z,10.23
2019-05-07T16:51:44.812Z,12.10
2019-05-07T16:54:14.481Z,10.55
2019-05-07T16:57:03.194Z,9.03
2019-05-07T16:59:32.854Z,8.20
2019-05-07T17:02:04.203Z,13.05
2019-05-07T17:04:33.648Z,12.90
2019-05-07T17:07:04.732Z,13.83
2019-05-07T17:09:35.496Z,12.25
2019-05-07T17:12:07.271Z,18.17
2019-05-07T17:14:37.619Z,20.72
2019-05-07T17:17:08.383Z,22.52
2019-05-07T17:19:38.406Z,26.42
2019-05-07T17:22:08.707Z,11.28
2019-05-07T17:24:38.468Z,9.30
2019-05-07T17:27:08.181Z,8.65
2019-05-07T17:29:37.624Z,9.78
2019-05-07T17:32:07.169Z,10.28
2019-05-07T17:34:37.394Z,10.32
2019-05-07T17:37:06.839Z,8.68
2019-05-07T17:39:36.823Z,7.60
2019-05-07T17:42:07.128Z,9.93
2019-05-07T17:44:37.176Z,9.68
2019-05-07T17:47:07.114Z,7.75
2019-05-07T17:49:36.832Z,9.20
2019-05-07T17:52:06.941Z,10.18
2019-05-07T17:54:36.752Z,12.03
2019-05-07T17:57:08.141Z,10.15
2019-05-07T17:59:38.272Z,10.82
2019-05-07T18:02:21.885Z,9.20
2019-05-07T18:04:54.071Z,7.85
2019-05-07T18:07:22.389Z,6.50
2019-05-07T18:09:52.250Z,10.53
2019-05-07T18:12:22.585Z,9.60
2019-05-07T18:14:52.854Z,8.93
2019-05-07T18:17:42.076Z,10.60
2019-05-07T18:20:12.895Z,9.78
2019-05-07T18:22:43.183Z,9.50
2019-05-07T18:25:12.778Z,11.75
2019-05-07T18:27:42.594Z,13.25
2019-05-07T18:30:12.938Z,10.08
2019-05-07T18:32:52.012Z,9.13
2019-05-07T18:35:23.130Z,10.93
2019-05-07T18:37:52.934Z,12.78
2019-05-07T18:40:23.097Z,11.85
2019-05-07T18:42:52.945Z,11.63
2019-05-07T18:45:22.428Z,11.70
2019-05-07T18:47:52.735Z,12.35
2019-05-07T18:50:22.847Z,10.68
2019-05-07T18:52:52.789Z,11.73
2019-05-07T18:55:22.781Z,12.90
2019-05-07T18:57:52.806Z,11.38
2019-05-07T19:00:24.656Z,11.68
2019-05-07T19:02:54.127Z,11.28
2019-05-07T19:05:23.764Z,30.40
2019-05-07T19:08:04.737Z,15.95
2019-05-07T19:10:25.677Z,15.75
2019-05-07T19:12:55.448Z,11.90
2019-05-07T19:15:25.402Z,11.93
2019-05-07T19:17:56.638Z,11.18
2019-05-07T19:20:26.401Z,12.68
2019-05-07T19:22:56.261Z,14.28
2019-05-07T19:25:26.382Z,11.45
2019-05-07T19:27:56.325Z,14.73
2019-05-07T19:30:26.008Z,11.33
2019-05-07T19:32:55.861Z,16.67
2019-05-07T19:35:25.383Z,14.75
2019-05-07T19:37:55.186Z,13.83
2019-05-07T19:40:24.718Z,13.15
2019-05-07T19:42:54.866Z,12.93
2019-05-07T19:45:24.865Z,15.70
2019-05-07T19:47:54.513Z,11.50
2019-05-07T19:50:24.230Z,14.85
2019-05-07T19:52:55.147Z,16.82
2019-05-07T19:55:26.355Z,13.03
2019-05-07T19:58:06.704Z,15.75
2019-05-07T20:00:36.498Z,12.85
2019-05-07T20:03:06.336Z,12.88
2019-05-07T20:05:37.408Z,12.88
2019-05-07T20:08:07.568Z,13.38
2019-05-07T20:10:38.989Z,13.72
2019-05-07T20:13:08.630Z,12.75
2019-05-07T20:15:39.906Z,19.35
2019-05-07T20:18:09.645Z,14.07
2019-05-07T20:20:39.807Z,13.15
2019-05-07T20:23:11.907Z,15.38
2019-05-07T20:25:42.001Z,14.80
2019-05-07T20:28:12.741Z,14.10
2019-05-07T20:30:42.750Z,15.90
2019-05-07T20:33:12.485Z,12.90
2019-05-07T20:35:43.747Z,16.15
2019-05-07T20:38:13.742Z,14.00
2019-05-07T20:40:43.593Z,13.83
2019-05-07T20:43:14.701Z,15.58
2019-05-07T20:45:44.070Z,15.65
2019-05-07T20:48:14.189Z,14.10
2019-05-07T20:50:44.125Z,13.45
2019-05-07T20:53:14.931Z,18.67
2019-05-07T20:55:48.856Z,14.60
2019-05-07T21:00:48.503Z,12.28
2019-05-07T21:03:24.901Z,12.90
2019-05-07T21:05:54.851Z,10.45
2019-05-07T21:08:25.044Z,12.15
2019-05-07T21:10:54.889Z,13.88
2019-05-07T21:13:31.465Z,14.83
2019-05-07T21:15:57.561Z,13.72
2019-05-07T21:18:27.683Z,13.08
2019-05-07T21:20:57.442Z,16.10
2019-05-07T21:23:27.455Z,12.40
2019-05-07T21:25:58.219Z,16.35
2019-05-07T21:28:27.743Z,14.65
2019-05-07T21:30:57.379Z,14.43
2019-05-07T21:33:26.835Z,10.65
2019-05-07T21:35:57.307Z,14.15
2019-05-07T21:38:27.188Z,14.13
2019-05-07T21:40:56.918Z,15.93
2019-05-07T21:43:26.400Z,13.62
2019-05-07T21:45:56.404Z,14.70
2019-05-07T21:48:26.667Z,13.28
2019-05-07T21:50:56.504Z,10.78
2019-05-07T21:53:36.874Z,12.53
2019-05-07T21:56:26.655Z,13.38
2019-05-07T21:59:03.090Z,9.70
2019-05-07T22:01:34.174Z,11.75
2019-05-07T22:04:04.324Z,13.13
2019-05-07T22:06:34.086Z,11.50
2019-05-07T22:09:05.642Z,15.38
2019-05-07T22:11:35.447Z,15.68
2019-05-07T22:14:05.638Z,16.73
2019-05-07T22:16:35.588Z,13.38
2019-05-07T22:19:05.915Z,10.68
2019-05-07T22:21:35.690Z,11.70
2019-05-07T22:24:05.799Z,10.68
2019-05-07T22:26:35.643Z,13.08
2019-05-07T22:29:05.397Z,13.00
2019-05-07T22:31:44.272Z,11.05
2019-05-07T22:34:25.265Z,12.43
2019-05-07T22:36:55.193Z,14.60
2019-05-07T22:39:25.240Z,11.08
2019-05-07T22:41:55.280Z,10.43
2019-05-07T22:44:26.359Z,11.90
2019-05-07T22:46:58.137Z,11.50
2019-05-07T22:49:27.825Z,14.90
2019-05-07T22:51:57.763Z,10.30
2019-05-07T22:54:28.507Z,11.20
2019-05-07T22:57:08.779Z,13.28
2019-05-07T22:59:38.563Z,9.88
2019-05-07T23:02:08.748Z,12.13
2019-05-07T23:04:39.003Z,14.30
2019-05-07T23:07:08.539Z,12.40
2019-05-07T23:09:38.188Z,11.90
2019-05-07T23:12:07.679Z,15.35
2019-05-07T23:14:37.627Z,13.13
2019-05-07T23:17:07.596Z,13.13
2019-05-07T23:19:37.458Z,14.53
2019-05-07T23:22:07.398Z,15.45
2019-05-07T23:24:37.451Z,10.40
2019-05-07T23:27:06.987Z,12.40
2019-05-07T23:29:36.916Z,11.25
2019-05-07T23:32:06.595Z,12.25
2019-05-07T23:34:36.355Z,11.45
2019-05-07T23:37:06.045Z,11.78
2019-05-07T23:39:42.081Z,11.85
2019-05-07T23:42:13.446Z,12.37
2019-05-07T23:44:43.326Z,13.13
2019-05-07T23:47:13.261Z,16.82
2019-05-07T23:49:43.173Z,14.68
2019-05-07T23:52:13.087Z,14.63
2019-05-07T23:54:42.974Z,12.33
2019-05-07T23:57:15.383Z,17.60
2019-05-07T23:59:44.020Z,13.32
